createdAt,value
2018-09-21T00:01:43.270Z,2.80
2018-09-21T00:04:12.591Z,2.30
2018-09-21T00:06:40.847Z,2.17
2018-09-21T00:09:10.355Z,2.25
2018-09-21T00:11:38.459Z,2.60
2018-09-21T00:14:06.547Z,2.20
2018-09-21T00:16:34.618Z,2.65
2018-09-21T00:19:02.839Z,2.35
2018-09-21T00:21:31.015Z,2.50
2018-09-21T00:23:59.235Z,2.40
2018-09-21T00:26:27.332Z,2.55
2018-09-21T00:28:55.524Z,2.30
2018-09-21T00:31:23.594Z,2.33
2018-09-21T00:33:51.735Z,2.30
2018-09-21T00:36:19.842Z,2.90
2018-09-21T00:38:48.020Z,2.20
2018-09-21T00:41:16.104Z,2.80
2018-09-21T00:43:44.218Z,2.65
2018-09-21T00:46:12.326Z,2.12
2018-09-21T00:48:40.720Z,2.40
2018-09-21T00:51:08.792Z,2.62
2018-09-21T00:53:36.849Z,2.20
2018-09-21T00:56:04.951Z,2.50
2018-09-21T00:58:33.022Z,2.40
2018-09-21T01:01:01.094Z,2.42
2018-09-21T01:03:29.173Z,2.30
2018-09-21T01:05:57.236Z,2.40
2018-09-21T01:08:25.309Z,2.37
2018-09-21T01:10:53.413Z,2.47
2018-09-21T01:13:21.532Z,2.25
2018-09-21T01:15:49.614Z,2.62
2018-09-21T01:18:17.694Z,2.52
2018-09-21T01:20:45.766Z,2.80
2018-09-21T01:23:13.857Z,2.45
2018-09-21T01:25:42.248Z,3.20
2018-09-21T01:28:10.307Z,2.75
2018-09-21T01:30:38.415Z,2.30
2018-09-21T01:33:06.505Z,2.60
2018-09-21T01:35:34.571Z,2.83
2018-09-21T01:38:02.649Z,3.00
2018-09-21T01:40:30.829Z,2.50
2018-09-21T01:42:58.937Z,2.75
2018-09-21T01:45:27.047Z,3.00
2018-09-21T01:47:55.127Z,2.77
2018-09-21T01:50:36.057Z,3.55
2018-09-21T01:53:04.050Z,2.70
2018-09-21T01:55:32.139Z,2.98
2018-09-21T01:58:00.231Z,2.52
2018-09-21T02:00:28.311Z,3.62
2018-09-21T02:02:56.709Z,2.42
2018-09-21T02:05:24.820Z,2.80
2018-09-21T02:07:52.919Z,2.85
2018-09-21T02:10:21.004Z,2.85
2018-09-21T02:12:49.090Z,2.92
2018-09-21T02:15:17.159Z,2.77
2018-09-21T02:17:45.310Z,2.67
2018-09-21T02:20:13.340Z,3.15
2018-09-21T02:22:41.435Z,2.67
2018-09-21T02:25:09.529Z,3.30
2018-09-21T02:27:37.641Z,2.92
2018-09-21T02:30:05.778Z,3.20
2018-09-21T02:32:33.851Z,2.98
2018-09-21T02:35:01.989Z,3.10
2018-09-21T02:37:30.061Z,3.30
2018-09-21T02:39:58.240Z,2.85
2018-09-21T02:42:26.308Z,3.17
2018-09-21T02:44:54.392Z,3.30
2018-09-21T02:47:22.476Z,3.22
2018-09-21T02:49:50.562Z,3.02
2018-09-21T02:52:18.643Z,3.27
2018-09-21T02:54:46.728Z,3.35
2018-09-21T02:57:14.787Z,3.45
2018-09-21T02:59:42.878Z,2.83
2018-09-21T03:02:10.960Z,3.25
2018-09-21T03:05:09.949Z,3.20
2018-09-21T03:07:38.051Z,3.45
2018-09-21T03:10:06.150Z,3.05
2018-09-21T03:12:34.247Z,2.65
2018-09-21T03:15:02.349Z,2.72
2018-09-21T03:17:30.770Z,3.33
2018-09-21T03:19:58.875Z,2.90
2018-09-21T03:22:26.972Z,3.33
2018-09-21T03:24:55.080Z,3.33
2018-09-21T03:27:23.149Z,2.77
2018-09-21T03:29:51.263Z,2.50
2018-09-21T03:32:19.347Z,3.10
2018-09-21T03:34:47.470Z,2.77
2018-09-21T03:37:15.551Z,3.95
2018-09-21T03:39:43.634Z,3.25
2018-09-21T03:42:11.715Z,3.08
2018-09-21T03:44:39.855Z,3.35
2018-09-21T03:47:07.975Z,3.30
2018-09-21T03:49:36.081Z,3.10
2018-09-21T03:52:04.199Z,3.15
2018-09-21T03:54:32.282Z,3.05
2018-09-21T03:57:00.363Z,3.70
2018-09-21T03:59:28.475Z,3.20
2018-09-21T04:01:56.582Z,3.75
2018-09-21T04:04:24.699Z,3.45
2018-09-21T04:06:52.815Z,3.62
2018-09-21T04:09:20.919Z,3.42
2018-09-21T04:11:49.031Z,3.35
2018-09-21T04:14:17.162Z,3.92
2018-09-21T04:16:45.246Z,3.08
2018-09-21T04:19:13.379Z,3.35
2018-09-21T04:21:41.479Z,2.90
2018-09-21T04:24:09.573Z,2.92
2018-09-21T04:26:37.748Z,3.00
2018-09-21T04:29:05.982Z,3.10
2018-09-21T04:31:34.059Z,2.80
2018-09-21T04:34:02.143Z,2.85
2018-09-21T04:36:30.248Z,2.77
2018-09-21T04:38:58.368Z,3.12
2018-09-21T04:41:26.531Z,2.70
2018-09-21T04:43:54.653Z,2.83
2018-09-21T04:46:22.802Z,3.58
2018-09-21T04:48:50.974Z,3.45
2018-09-21T04:51:19.336Z,3.40
2018-09-21T04:53:47.455Z,3.08
2018-09-21T04:56:15.577Z,3.00
2018-09-21T04:58:43.634Z,3.25
2018-09-21T05:01:11.782Z,3.00
2018-09-21T05:03:39.954Z,3.20
2018-09-21T05:06:08.079Z,2.70
2018-09-21T05:08:36.180Z,2.60
2018-09-21T05:11:04.267Z,2.90
2018-09-21T05:13:32.357Z,3.25
2018-09-21T05:16:00.443Z,2.83
2018-09-21T05:18:28.621Z,2.80
2018-09-21T05:20:56.848Z,2.87
2018-09-21T05:23:24.997Z,2.92
2018-09-21T05:25:53.101Z,3.20
2018-09-21T05:28:21.203Z,3.37
2018-09-21T05:30:49.409Z,2.72
2018-09-21T05:33:17.577Z,2.98
2018-09-21T05:35:45.731Z,4.00
2018-09-21T05:38:13.947Z,2.30
2018-09-21T05:40:42.159Z,2.67
2018-09-21T05:43:10.381Z,2.87
2018-09-21T05:45:38.511Z,2.92
2018-09-21T05:48:06.587Z,2.87
2018-09-21T05:50:34.763Z,2.60
2018-09-21T05:53:02.876Z,3.37
2018-09-21T05:55:31.156Z,3.00
2018-09-21T05:57:59.280Z,2.90
2018-09-21T06:00:27.353Z,2.72
2018-09-21T06:02:55.502Z,3.47
2018-09-21T06:05:23.553Z,3.40
2018-09-21T06:07:51.775Z,2.85
2018-09-21T06:10:19.845Z,2.67
2018-09-21T06:12:47.987Z,2.80
2018-09-21T06:15:16.078Z,3.00
2018-09-21T06:17:44.151Z,2.47
2018-09-21T06:20:12.477Z,2.63
2018-09-21T06:22:45.103Z,3.37
2018-09-21T06:25:08.471Z,2.57
2018-09-21T06:27:36.555Z,2.95
2018-09-21T06:30:05.004Z,3.20
2018-09-21T06:32:33.091Z,2.70
2018-09-21T06:35:01.167Z,2.70
2018-09-21T06:37:29.319Z,2.60
2018-09-21T06:39:57.383Z,3.55
2018-09-21T06:42:25.499Z,3.10
2018-09-21T06:44:53.572Z,2.80
2018-09-21T06:47:21.684Z,2.70
2018-09-21T06:49:49.877Z,2.70
2018-09-21T06:52:18.028Z,2.80
2018-09-21T06:54:46.552Z,2.40
2018-09-21T06:57:14.684Z,1.97
2018-09-21T06:59:42.835Z,1.67
2018-09-21T07:02:10.942Z,1.40
2018-09-21T07:04:39.113Z,2.00
2018-09-21T07:07:07.247Z,1.90
2018-09-21T07:09:35.383Z,2.10
2018-09-21T07:12:04.724Z,1.80
2018-09-21T07:14:33.459Z,1.60
2018-09-21T07:17:01.543Z,1.80
2018-09-21T07:19:29.599Z,2.10
2018-09-21T07:21:57.703Z,2.90
2018-09-21T07:24:25.854Z,2.07
2018-09-21T07:26:53.921Z,2.40
2018-09-21T07:29:21.991Z,2.10
2018-09-21T07:31:50.131Z,2.33
2018-09-21T07:34:18.243Z,1.80
2018-09-21T07:36:46.348Z,1.60
2018-09-21T07:39:14.463Z,2.13
2018-09-21T07:41:42.671Z,2.43
2018-09-21T07:44:10.829Z,2.20
2018-09-21T07:46:38.996Z,2.40
2018-09-21T07:49:07.173Z,1.97
2018-09-21T07:51:35.292Z,2.00
2018-09-21T07:54:03.357Z,2.00
2018-09-21T07:56:31.491Z,2.30
2018-09-21T07:58:59.571Z,1.80
2018-09-21T08:01:27.760Z,2.40
2018-09-21T08:03:55.847Z,2.10
2018-09-21T08:06:24.003Z,2.27
2018-09-21T08:08:52.108Z,2.03
2018-09-21T08:11:21.465Z,2.37
2018-09-21T08:13:49.591Z,2.30
2018-09-21T08:16:18.287Z,1.90
2018-09-21T08:18:46.367Z,1.80
2018-09-21T08:21:14.610Z,1.87
2018-09-21T08:23:42.731Z,2.07
2018-09-21T08:26:10.955Z,2.30
2018-09-21T08:28:39.086Z,2.17
2018-09-21T08:31:07.157Z,2.20
2018-09-21T08:33:35.303Z,1.80
2018-09-21T08:36:03.405Z,2.33
2018-09-21T08:38:31.520Z,1.90
2018-09-21T08:40:59.650Z,1.73
2018-09-21T08:43:27.817Z,2.17
2018-09-21T08:45:55.929Z,1.90
2018-09-21T08:48:24.165Z,2.40
2018-09-21T08:50:52.262Z,1.77
2018-09-21T08:53:20.897Z,1.97
2018-09-21T08:55:49.007Z,1.80
2018-09-21T08:58:17.331Z,1.47
2018-09-21T09:00:45.386Z,1.73
2018-09-21T09:03:15.516Z,1.50
2018-09-21T09:05:47.791Z,1.73
2018-09-21T09:08:15.957Z,1.30
2018-09-21T09:10:44.302Z,2.00
2018-09-21T09:13:12.657Z,1.57
2018-09-21T09:15:40.743Z,1.50
2018-09-21T09:18:08.880Z,1.77
2018-09-21T09:20:36.993Z,2.00
2018-09-21T09:23:05.551Z,1.87
2018-09-21T09:25:33.638Z,1.43
2018-09-21T09:28:01.819Z,1.70
2018-09-21T09:30:30.211Z,1.50
2018-09-21T09:32:58.527Z,1.50
2018-09-21T09:35:26.675Z,1.70
2018-09-21T09:37:54.843Z,1.30
2018-09-21T09:40:23.050Z,1.87
2018-09-21T09:42:51.221Z,1.90
2018-09-21T09:45:19.274Z,1.63
2018-09-21T09:47:47.413Z,1.37
2018-09-21T09:50:15.511Z,2.13
2018-09-21T09:52:43.590Z,1.40
2018-09-21T09:55:24.463Z,1.60
2018-09-21T09:57:52.623Z,1.57
2018-09-21T10:00:26.591Z,1.17
2018-09-21T10:02:54.726Z,1.40
2018-09-21T10:05:22.820Z,1.40
2018-09-21T10:07:50.942Z,1.33
2018-09-21T10:10:19.038Z,1.63
2018-09-21T10:12:47.149Z,1.30
2018-09-21T10:15:15.303Z,1.07
2018-09-21T10:17:43.446Z,0.80
2018-09-21T10:20:11.536Z,1.10
2018-09-21T10:22:39.593Z,0.90
2018-09-21T10:25:07.675Z,0.40
2018-09-21T10:27:35.969Z,1.00
2018-09-21T10:30:04.015Z,0.60
2018-09-21T10:32:32.198Z,1.07
2018-09-21T10:35:00.265Z,0.87
2018-09-21T10:37:28.369Z,1.00
2018-09-21T10:39:56.504Z,0.77
2018-09-21T10:42:24.684Z,0.93
2018-09-21T10:44:52.739Z,0.83
2018-09-21T10:47:20.811Z,0.83
2018-09-21T10:49:49.168Z,0.73
2018-09-21T10:52:17.278Z,1.00
2018-09-21T10:54:45.350Z,0.80
2018-09-21T10:57:13.472Z,0.87
2018-09-21T10:59:41.607Z,0.80
2018-09-21T11:02:09.679Z,0.90
2018-09-21T11:04:37.795Z,1.10
2018-09-21T11:07:05.954Z,0.80
2018-09-21T11:09:33.979Z,0.83
2018-09-21T11:12:02.055Z,1.13
2018-09-21T11:14:30.193Z,1.33
2018-09-21T11:16:58.707Z,1.03
2018-09-21T11:19:26.795Z,0.90
2018-09-21T11:21:54.886Z,1.63
2018-09-21T11:24:24.864Z,0.77
2018-09-21T11:26:52.910Z,0.60
2018-09-21T11:29:21.011Z,0.90
2018-09-21T11:31:49.098Z,0.70
2018-09-21T11:34:17.177Z,1.10
2018-09-21T11:36:45.639Z,0.90
2018-09-21T11:39:13.767Z,0.80
2018-09-21T11:41:41.892Z,1.03
2018-09-21T11:44:10.046Z,1.33
2018-09-21T11:46:38.302Z,0.83
2018-09-21T11:49:06.350Z,0.90
2018-09-21T11:51:34.432Z,0.80
2018-09-21T11:54:02.527Z,0.80
2018-09-21T11:56:30.639Z,1.07
2018-09-21T11:58:58.839Z,0.90
2018-09-21T12:01:26.961Z,0.60
2018-09-21T12:03:55.535Z,0.80
2018-09-21T12:06:23.790Z,0.90
2018-09-21T12:08:51.948Z,0.93
2018-09-21T12:11:20.031Z,0.70
2018-09-21T12:13:48.145Z,0.63
2018-09-21T12:16:16.223Z,0.97
2018-09-21T12:18:45.651Z,0.83
2018-09-21T12:21:13.823Z,0.90
2018-09-21T12:23:42.110Z,0.90
2018-09-21T12:26:10.201Z,1.07
2018-09-21T12:28:38.355Z,0.70
2018-09-21T12:31:06.589Z,0.62
2018-09-21T12:33:35.132Z,0.80
2018-09-21T12:36:03.377Z,1.03
2018-09-21T12:38:31.475Z,1.60
2018-09-21T12:40:59.663Z,1.07
2018-09-21T12:43:27.905Z,1.10
2018-09-21T12:45:56.037Z,0.70
2018-09-21T12:48:25.323Z,0.90
2018-09-21T12:50:53.469Z,0.90
2018-09-21T12:53:21.519Z,1.02
2018-09-21T12:55:49.686Z,0.70
2018-09-21T12:58:17.987Z,1.10
2018-09-21T13:00:52.263Z,0.80
2018-09-21T13:03:21.639Z,1.03
2018-09-21T13:05:56.867Z,0.80
2018-09-21T13:08:26.055Z,1.20
2018-09-21T13:10:54.640Z,1.20
2018-09-21T13:13:22.759Z,1.32
2018-09-21T13:15:51.487Z,1.17
2018-09-21T13:18:19.589Z,1.30
2018-09-21T13:20:47.719Z,0.97
2018-09-21T13:23:15.804Z,1.30
2018-09-21T13:25:43.979Z,0.77
2018-09-21T13:28:12.091Z,1.17
2018-09-21T13:30:40.210Z,1.27
2018-09-21T13:33:08.305Z,1.10
2018-09-21T13:35:36.452Z,1.37
2018-09-21T13:38:04.535Z,1.17
2018-09-21T13:40:32.672Z,1.30
2018-09-21T13:43:00.758Z,1.30
2018-09-21T13:45:28.864Z,1.02
2018-09-21T13:47:57.022Z,1.15
2018-09-21T13:50:25.114Z,0.93
2018-09-21T13:52:53.421Z,1.43
2018-09-21T13:55:21.532Z,1.13
2018-09-21T13:57:49.621Z,1.20
2018-09-21T14:00:17.764Z,0.85
2018-09-21T14:02:45.849Z,1.22
2018-09-21T14:05:14.055Z,1.13
2018-09-21T14:07:42.587Z,0.70
2018-09-21T14:10:11.158Z,1.00
2018-09-21T14:12:39.543Z,1.20
2018-09-21T14:15:07.640Z,0.70
2018-09-21T14:17:35.792Z,1.47
2018-09-21T14:20:04.069Z,1.37
2018-09-21T14:22:32.145Z,0.90
2018-09-21T14:25:00.246Z,0.90
2018-09-21T14:27:28.328Z,0.93
2018-09-21T14:29:56.469Z,0.93
2018-09-21T14:32:24.576Z,1.00
2018-09-21T14:34:52.683Z,0.97
2018-09-21T14:37:20.784Z,1.30
2018-09-21T14:39:48.898Z,0.90
2018-09-21T14:42:17.010Z,1.20
2018-09-21T14:44:45.638Z,1.05
2018-09-21T14:47:13.967Z,0.70
2018-09-21T14:49:42.111Z,1.17
2018-09-21T14:52:10.208Z,1.77
2018-09-21T14:54:38.578Z,0.73
2018-09-21T14:57:07.220Z,0.70
2018-09-21T14:59:35.373Z,0.97
2018-09-21T15:02:03.597Z,0.87
2018-09-21T15:04:32.447Z,1.10
2018-09-21T15:07:00.547Z,1.10
2018-09-21T15:09:28.748Z,0.97
2018-09-21T15:11:56.822Z,1.00
2018-09-21T15:14:24.942Z,1.03
2018-09-21T15:16:53.027Z,1.10
2018-09-21T15:19:21.107Z,1.20
2018-09-21T15:21:49.334Z,1.10
2018-09-21T15:24:17.459Z,1.00
2018-09-21T15:26:45.635Z,1.37
2018-09-21T15:29:13.762Z,0.80
2018-09-21T15:31:41.877Z,1.47
2018-09-21T15:34:09.983Z,1.10
2018-09-21T15:36:38.099Z,1.00
2018-09-21T15:39:08.507Z,1.00
2018-09-21T15:41:36.683Z,1.10
2018-09-21T15:44:05.849Z,1.00
2018-09-21T15:46:33.931Z,0.90
2018-09-21T15:49:02.903Z,1.00
2018-09-21T15:51:30.987Z,0.80
2018-09-21T15:54:00.159Z,0.90
2018-09-21T15:56:28.239Z,1.60
2018-09-21T15:58:56.353Z,1.03
2018-09-21T16:01:24.530Z,1.23
2018-09-21T16:03:52.635Z,1.17
2018-09-21T16:06:20.698Z,0.77
2018-09-21T16:08:48.811Z,1.27
2018-09-21T16:11:16.924Z,1.13
2018-09-21T16:13:44.987Z,1.42
2018-09-21T16:16:13.155Z,1.60
2018-09-21T16:18:41.242Z,1.20
2018-09-21T16:21:09.336Z,1.70
2018-09-21T16:23:37.438Z,1.10
2018-09-21T16:26:05.526Z,1.10
2018-09-21T16:28:34.727Z,1.23
2018-09-21T16:31:02.822Z,1.10
2018-09-21T16:33:30.953Z,1.20
2018-09-21T16:35:59.081Z,1.70
2018-09-21T16:38:27.215Z,1.17
2018-09-21T16:40:55.301Z,1.00
2018-09-21T16:43:23.391Z,1.00
2018-09-21T16:45:51.516Z,1.30
2018-09-21T16:48:19.869Z,1.10
2018-09-21T16:50:48.151Z,1.80
2018-09-21T16:53:16.281Z,1.10
2018-09-21T16:55:44.384Z,0.53
2018-09-21T16:58:12.473Z,0.60
2018-09-21T17:00:42.635Z,0.60
2018-09-21T17:03:17.427Z,0.53
2018-09-21T17:05:46.364Z,0.50
2018-09-21T17:08:15.399Z,0.63
2018-09-21T17:10:47.492Z,0.83
2018-09-21T17:13:17.520Z,0.63
2018-09-21T17:15:45.764Z,1.10
2018-09-21T17:18:17.668Z,0.70
2018-09-21T17:20:47.960Z,0.60
2018-09-21T17:23:17.893Z,0.77
2018-09-21T17:25:45.961Z,0.77
2018-09-21T17:28:14.940Z,1.13
2018-09-21T17:30:43.375Z,1.00
2018-09-21T17:33:12.787Z,1.53
2018-09-21T17:35:41.191Z,0.83
2018-09-21T17:38:09.339Z,0.63
2018-09-21T17:40:37.460Z,1.13
2018-09-21T17:43:06.031Z,1.10
2018-09-21T17:45:34.099Z,1.00
2018-09-21T17:48:02.263Z,0.80
2018-09-21T17:50:30.419Z,1.10
2018-09-21T17:52:58.570Z,1.10
2018-09-21T17:55:26.685Z,0.90
2018-09-21T17:57:54.828Z,1.13
2018-09-21T18:00:23.050Z,1.17
2018-09-21T18:02:51.260Z,1.00
2018-09-21T18:05:19.364Z,1.07
2018-09-21T18:07:47.451Z,1.17
2018-09-21T18:10:15.559Z,1.00
2018-09-21T18:12:43.722Z,0.93
2018-09-21T18:15:11.815Z,1.50
2018-09-21T18:17:40.053Z,1.67
2018-09-21T18:20:08.199Z,1.93
2018-09-21T18:22:36.287Z,0.90
2018-09-21T18:25:04.347Z,1.13
2018-09-21T18:27:32.462Z,0.60
2018-09-21T18:30:00.546Z,0.87
2018-09-21T18:32:28.631Z,1.00
2018-09-21T18:34:56.874Z,1.10
2018-09-21T18:37:24.991Z,1.40
2018-09-21T18:39:53.106Z,1.00
2018-09-21T18:42:21.251Z,1.10
2018-09-21T18:44:49.446Z,1.27
2018-09-21T18:47:17.503Z,1.63
2018-09-21T18:49:45.626Z,1.27
2018-09-21T18:52:14.520Z,1.57
2018-09-21T18:54:42.996Z,1.37
2018-09-21T18:57:11.163Z,1.53
2018-09-21T18:59:39.259Z,1.50
2018-09-21T19:02:07.415Z,2.00
2018-09-21T19:04:36.671Z,1.60
2018-09-21T19:07:09.091Z,1.77
2018-09-21T19:09:37.203Z,1.23
2018-09-21T19:12:05.323Z,1.40
2018-09-21T19:14:33.387Z,1.50
2018-09-21T19:17:01.503Z,1.07
2018-09-21T19:19:29.583Z,1.07
2018-09-21T19:21:57.713Z,1.50
2018-09-21T19:24:25.969Z,1.30
2018-09-21T19:26:54.061Z,0.90
2018-09-21T19:29:22.676Z,0.93
2018-09-21T19:31:50.754Z,1.60
2018-09-21T19:34:18.838Z,1.10
2018-09-21T19:36:46.947Z,1.00
2018-09-21T19:39:15.047Z,1.23
2018-09-21T19:41:43.731Z,1.47
2018-09-21T19:44:11.840Z,1.00
2018-09-21T19:46:39.970Z,1.63
2018-09-21T19:49:08.064Z,1.33
2018-09-21T19:51:36.234Z,1.10
2018-09-21T19:54:04.404Z,1.40
2018-09-21T19:56:32.547Z,1.50
2018-09-21T19:59:00.756Z,1.00
2018-09-21T20:01:28.885Z,2.07
2018-09-21T20:03:57.082Z,1.37
2018-09-21T20:06:25.263Z,1.40
2018-09-21T20:08:53.353Z,1.63
2018-09-21T20:11:21.455Z,1.45
2018-09-21T20:13:49.899Z,1.33
2018-09-21T20:16:17.989Z,2.70
2018-09-21T20:18:46.074Z,2.23
2018-09-21T20:21:15.639Z,2.27
2018-09-21T20:23:43.783Z,1.73
2018-09-21T20:26:11.883Z,1.63
2018-09-21T20:28:40.009Z,1.70
2018-09-21T20:31:13.509Z,2.57
2018-09-21T20:33:41.978Z,2.30
2018-09-21T20:36:10.216Z,2.50
2018-09-21T20:38:38.313Z,1.63
2018-09-21T20:41:06.390Z,2.00
2018-09-21T20:43:34.733Z,1.87
2018-09-21T20:46:02.837Z,1.93
2018-09-21T20:48:30.953Z,1.30
2018-09-21T20:50:59.078Z,2.20
2018-09-21T20:53:27.225Z,2.63
2018-09-21T20:55:55.397Z,1.50
2018-09-21T20:58:23.573Z,1.40
2018-09-21T21:00:51.699Z,1.40
2018-09-21T21:03:19.816Z,1.60
2018-09-21T21:05:47.913Z,1.77
2018-09-21T21:08:16.024Z,1.43
2018-09-21T21:10:44.136Z,1.03
2018-09-21T21:13:12.294Z,1.50
2018-09-21T21:15:40.379Z,1.27
2018-09-21T21:18:08.759Z,1.40
2018-09-21T21:20:36.970Z,1.03
2018-09-21T21:23:05.443Z,1.30
2018-09-21T21:25:33.738Z,1.70
2018-09-21T21:28:02.881Z,1.80
2018-09-21T21:30:30.976Z,1.43
2018-09-21T21:32:59.082Z,1.23
2018-09-21T21:35:27.181Z,1.47
2018-09-21T21:37:56.340Z,1.40
2018-09-21T21:40:24.512Z,1.80
2018-09-21T21:42:52.568Z,1.00
2018-09-21T21:45:20.673Z,1.10
2018-09-21T21:47:48.797Z,1.30
2018-09-21T21:50:17.041Z,0.87
2018-09-21T21:52:47.052Z,1.20
2018-09-21T21:55:15.294Z,0.90
2018-09-21T21:57:43.488Z,0.90
2018-09-21T22:00:11.751Z,1.20
2018-09-21T22:02:39.971Z,1.32
2018-09-21T22:05:08.313Z,1.30
2018-09-21T22:07:38.107Z,1.20
2018-09-21T22:10:07.922Z,1.00
2018-09-21T22:12:41.519Z,1.07
2018-09-21T22:15:17.813Z,2.60
2018-09-21T22:17:46.183Z,1.40
2018-09-21T22:20:14.359Z,1.10
2018-09-21T22:22:42.495Z,1.07
2018-09-21T22:25:11.308Z,1.13
2018-09-21T22:27:39.432Z,1.10
2018-09-21T22:30:07.987Z,1.03
2018-09-21T22:32:36.209Z,1.27
2018-09-21T22:35:04.316Z,0.93
2018-09-21T22:37:42.608Z,0.93
2018-09-21T22:40:10.934Z,1.60
2018-09-21T22:42:39.070Z,1.27
2018-09-21T22:45:07.487Z,1.47
2018-09-21T22:47:35.598Z,2.47
2018-09-21T22:50:03.730Z,1.20
2018-09-21T22:52:31.851Z,1.50
2018-09-21T22:54:59.979Z,1.60
2018-09-21T22:57:28.107Z,1.13
2018-09-21T22:59:56.209Z,1.67
2018-09-21T23:02:24.355Z,1.27
2018-09-21T23:04:52.453Z,1.33
2018-09-21T23:07:20.582Z,1.87
2018-09-21T23:09:48.669Z,1.70
2018-09-21T23:12:16.843Z,1.37
2018-09-21T23:14:44.952Z,1.20
2018-09-21T23:17:13.086Z,1.23
2018-09-21T23:19:41.174Z,1.70
2018-09-21T23:22:09.294Z,1.67
2018-09-21T23:24:37.402Z,1.00
2018-09-21T23:27:05.564Z,1.10
2018-09-21T23:29:33.662Z,1.57
2018-09-21T23:32:01.793Z,1.40
2018-09-21T23:34:29.909Z,1.57
2018-09-21T23:36:57.986Z,1.60
2018-09-21T23:39:26.126Z,1.17
2018-09-21T23:41:54.223Z,1.67
2018-09-21T23:44:22.306Z,1.40
2018-09-21T23:46:50.413Z,1.40
2018-09-21T23:49:22.946Z,1.40
2018-09-21T23:51:51.414Z,1.40
2018-09-21T23:54:19.583Z,1.27
2018-09-21T23:56:47.675Z,1.50
2018-09-21T23:59:15.785Z,2.37
